Time;durP1;ratioP1;P1;durP2;ratioP2;P2;SDS_P1;SDS_P2;PMS_P1;PMS_P2;Temp;Humidity;BMP_temperature;BMP_pressure;BME280_temperature;BME280_humidity;BME280_pressure;Samples;Min_cycle;Max_cycle;Signal;HPM_P1;HPM_P2
2022/08/03 00:01:35;;;;;;;11.00;2.30;;;;;;;30.10;43.39;101549.63;5096178;28;20023;-77
2022/08/03 00:04:00;;;;;;;6.45;1.25;;;;;;;29.99;42.98;101563.16;5114754;28;20102;-77
2022/08/03 00:06:26;;;;;;;6.60;1.15;;;;;;;30.33;42.23;101552.28;5096512;28;20119;-77
2022/08/03 00:08:51;;;;;;;7.13;1.45;;;;;;;29.88;43.03;101556.81;5114695;28;20526;-76
2022/08/03 00:11:17;;;;;;;9.95;1.20;;;;;;;27.71;48.67;101563.22;5114692;28;20368;-76
2022/08/03 00:13:42;;;;;;;8.88;1.48;;;;;;;30.39;42.55;101551.75;5096442;28;20032;-77
2022/08/03 00:16:09;;;;;;;8.30;1.30;;;;;;;30.01;43.27;101550.41;5095833;28;20066;-76
2022/08/03 00:18:35;;;;;;;4.68;1.15;;;;;;;31.15;40.49;101551.72;5095971;28;20509;-77
2022/08/03 00:21:01;;;;;;;6.63;1.17;;;;;;;31.52;39.55;101553.88;5094924;28;20024;-76
2022/08/03 00:23:26;;;;;;;3.80;1.25;;;;;;;30.26;42.53;101546.56;5096131;28;20061;-76
2022/08/03 00:25:51;;;;;;;8.13;1.52;;;;;;;29.37;44.26;101555.41;5096313;28;20143;-76
2022/08/03 00:28:17;;;;;;;5.32;1.20;;;;;;;30.04;42.75;101544.78;5095470;28;20031;-76
2022/08/03 00:30:42;;;;;;;4.60;1.25;;;;;;;29.82;43.59;101551.88;5096176;28;20045;-77
2022/08/03 00:33:09;;;;;;;4.38;1.55;;;;;;;29.47;44.23;101552.88;5096012;28;20494;-77
2022/08/03 00:35:35;;;;;;;9.63;1.30;;;;;;;29.36;44.40;101550.13;5095647;28;20138;-77
2022/08/03 00:38:00;;;;;;;4.03;1.35;;;;;;;29.97;43.53;101543.56;5095695;28;20019;-76
2022/08/03 00:40:26;;;;;;;6.75;1.60;;;;;;;29.40;44.55;101548.91;5095885;28;20533;-76
2022/08/03 00:42:54;;;;;;;6.68;1.77;;;;;;;29.39;45.54;101545.38;5095024;28;20023;-76
2022/08/03 00:45:22;;;;;;;4.25;1.75;;;;;;;29.76;44.49;101538.91;5114155;28;20028;-77
2022/08/03 00:47:48;;;;;;;9.07;1.42;;;;;;;29.98;43.68;101534.47;5096012;28;20040;-76
2022/08/03 00:50:14;;;;;;;7.25;2.10;;;;;;;28.75;46.60;101535.06;5113071;28;20495;-77
2022/08/03 00:52:40;;;;;;;7.60;1.90;;;;;;;29.44;45.63;101536.94;5095656;28;20051;-77
2022/08/03 00:55:05;;;;;;;5.97;1.77;;;;;;;29.35;45.96;101527.75;5095679;28;20055;-77
2022/08/03 00:57:32;;;;;;;8.15;1.73;;;;;;;28.34;48.26;101536.31;5095054;28;20516;-77
2022/08/03 01:00:01;;;;;;;7.50;1.63;;;;;;;29.44;45.68;101526.16;5113902;28;20479;-77
2022/08/03 01:02:27;;;;;;;3.53;1.13;;;;;;;30.28;43.18;101526.56;5095540;28;20027;-76
2022/08/03 01:04:53;;;;;;;7.95;1.55;;;;;;;28.80;47.11;101529.31;5094715;28;20032;-77
2022/08/03 01:07:43;;;;;;;7.78;1.83;;;;;;;30.22;43.01;101520.81;5095579;28;20035;-77
2022/08/03 01:10:34;;;;;;;4.88;1.45;;;;;;;29.66;44.93;101517.22;5095256;28;20027;-77
2022/08/03 01:13:12;;;;;;;8.43;1.85;;;;;;;29.56;44.73;101525.19;5095466;28;20027;-77
2022/08/03 01:15:44;;;;;;;9.07;1.65;;;;;;;29.67;44.30;101515.41;5095346;28;20020;-77
2022/08/03 01:18:27;;;;;;;5.35;1.23;;;;;;;30.20;43.51;101515.56;5094607;28;20023;-77
2022/08/03 01:20:57;;;;;;;7.18;1.90;;;;;;;30.15;43.29;101507.00;5095290;28;20024;-77
2022/08/03 01:24:04;;;;;;;6.50;1.50;;;;;;;28.64;47.46;101517.06;5095058;28;20030;-76
2022/08/03 01:27:01;;;;;;;5.03;1.63;;;;;;;30.65;42.54;101511.00;5056483;28;20479;-77
2022/08/03 01:29:51;;;;;;;6.72;1.75;;;;;;;30.51;42.42;101512.16;5094820;28;20065;-77
2022/08/03 01:32:24;;;;;;;4.25;2.45;;;;;;;30.56;42.50;101513.50;5112216;28;20023;-76
2022/08/03 01:34:58;;;;;;;4.10;1.90;;;;;;;30.81;41.98;101516.78;5094942;28;20387;-77
2022/08/03 01:37:37;;;;;;;6.28;1.52;;;;;;;31.32;40.42;101515.13;5094891;28;20023;-76
2022/08/03 01:40:05;;;;;;;5.45;1.58;;;;;;;31.28;40.32;101519.09;5093905;28;20023;-76
2022/08/03 01:42:32;;;;;;;10.20;2.33;;;;;;;30.79;40.84;101524.19;5094664;28;20028;-76
2022/08/03 01:44:59;;;;;;;8.20;1.58;;;;;;;29.89;43.36;101520.78;5094381;28;20106;-76
2022/08/03 01:47:27;;;;;;;11.93;2.20;;;;;;;30.52;41.94;101511.19;5112289;28;20416;-76
2022/08/03 01:49:55;;;;;;;6.88;1.95;;;;;;;30.52;41.12;101517.44;5112835;28;20031;-77
2022/08/03 01:52:21;;;;;;;6.60;1.95;;;;;;;30.71;41.58;101515.88;5094437;28;20072;-75
2022/08/03 01:54:49;;;;;;;9.77;1.90;;;;;;;30.95;41.07;101521.88;5094112;28;20048;-76
2022/08/03 01:57:16;;;;;;;6.03;1.73;;;;;;;30.72;40.96;101517.56;5094475;28;20403;-76
2022/08/03 01:59:44;;;;;;;13.27;1.42;;;;;;;30.85;40.87;101515.53;5112161;28;20506;-76
2022/08/03 02:02:13;;;;;;;10.73;2.35;;;;;;;30.33;42.28;101517.25;5094599;28;20040;-76
2022/08/03 02:04:41;;;;;;;13.07;2.25;;;;;;;30.51;41.85;101509.47;5112866;28;20031;-77
2022/08/03 02:07:08;;;;;;;5.28;1.70;;;;;;;30.21;42.82;101513.72;5093711;28;20024;-76
2022/08/03 02:09:36;;;;;;;14.48;2.00;;;;;;;29.09;44.81;101521.72;5112617;28;20031;-77
2022/08/03 02:12:02;;;;;;;9.32;2.08;;;;;;;29.30;45.15;101508.41;5094444;28;20030;-77
2022/08/03 02:14:28;;;;;;;11.57;2.05;;;;;;;29.98;43.54;101502.13;5093865;28;20024;-77
2022/08/03 02:16:55;;;;;;;5.50;1.65;;;;;;;30.35;41.70;101509.88;5094307;28;20035;-76
2022/08/03 02:19:23;;;;;;;5.60;2.13;;;;;;;30.14;42.41;101505.28;5112906;28;20026;-77
2022/08/03 02:21:52;;;;;;;5.75;1.88;;;;;;;29.30;44.34;101504.88;5093964;28;20035;-77
2022/08/03 02:24:17;;;;;;;9.30;1.65;;;;;;;30.37;42.19;101503.38;5094218;28;20020;-77
2022/08/03 02:26:44;;;;;;;6.90;2.20;;;;;;;30.26;42.20;101498.88;5112271;28;20051;-76
2022/08/03 02:29:17;;;;;;;8.25;2.10;;;;;;;30.52;41.33;101498.56;5093744;28;20071;-76
2022/08/03 02:31:45;;;;;;;11.05;2.33;;;;;;;29.04;44.74;101507.75;5094475;28;20051;-77
2022/08/03 02:34:14;;;;;;;8.18;2.30;;;;;;;30.62;41.65;101498.63;5093929;28;20031;-77
2022/08/03 02:36:41;;;;;;;5.82;1.90;;;;;;;30.18;41.90;101493.25;5093480;28;20032;-77
2022/08/03 02:39:12;;;;;;;5.10;2.10;;;;;;;29.48;43.93;101489.94;5094161;28;20015;-76
2022/08/03 02:41:43;;;;;;;5.60;1.65;;;;;;;29.58;43.84;101496.31;5093803;28;20030;-76
2022/08/03 02:44:11;;;;;;;9.77;2.00;;;;;;;29.90;42.94;101476.69;5115651;28;20093;-77
2022/08/03 02:46:40;;;;;;;7.78;1.92;;;;;;;28.53;46.24;101490.94;5098181;28;20093;-76
2022/08/03 02:49:08;;;;;;;11.68;2.13;;;;;;;28.90;45.65;101482.78;5097766;28;20020;-77
2022/08/03 02:51:37;;;;;;;6.53;2.15;;;;;;;28.58;46.18;101491.47;5098202;28;20016;-77
2022/08/03 02:54:05;;;;;;;6.90;2.20;;;;;;;29.22;44.87;101490.16;5098166;28;20020;-77
2022/08/03 02:56:32;;;;;;;7.30;2.58;;;;;;;29.07;44.64;101491.34;5097195;28;20016;-77
2022/08/03 02:58:59;;;;;;;10.02;2.35;;;;;;;28.44;46.34;101489.81;5097743;28;20023;-77
2022/08/03 03:01:27;;;;;;;13.05;2.03;;;;;;;29.26;44.37;101478.22;5097859;28;20475;-77
2022/08/03 03:03:56;;;;;;;7.82;1.73;;;;;;;28.16;46.95;101493.72;5097058;28;20494;-77
2022/08/03 03:06:24;;;;;;;11.77;2.05;;;;;;;29.06;44.74;101481.59;5097832;28;20069;-76
2022/08/03 03:08:50;;;;;;;10.65;2.63;;;;;;;28.13;46.87;101483.19;5097547;28;20524;-76
2022/08/03 03:11:18;;;;;;;6.68;1.75;;;;;;;29.10;45.11;101475.00;5097184;28;20020;-76
2022/08/03 03:13:45;;;;;;;9.98;2.08;;;;;;;28.74;45.61;101480.44;5115966;28;20027;-76
2022/08/03 03:16:12;;;;;;;10.48;2.15;;;;;;;29.44;43.76;101473.19;5097439;28;20015;-76
2022/08/03 03:18:38;;;;;;;7.18;2.90;;;;;;;29.63;43.28;101465.47;5096740;28;20019;-76
2022/08/03 03:21:07;;;;;;;8.38;2.72;;;;;;;29.19;44.55;101474.25;5097450;28;20062;-77
2022/08/03 03:23:35;;;;;;;9.82;2.55;;;;;;;28.42;45.71;101472.09;5115833;28;20026;-76
2022/08/03 03:26:01;;;;;;;8.95;2.08;;;;;;;28.75;45.39;101481.28;5114752;28;20471;-77
2022/08/03 03:28:27;;;;;;;14.30;2.25;;;;;;;29.45;43.41;101479.41;5097380;28;20023;-76
2022/08/03 03:30:52;;;;;;;11.13;2.65;;;;;;;28.81;45.17;101478.13;5096635;28;20471;-76
2022/08/03 03:33:18;;;;;;;11.55;2.30;;;;;;;28.60;45.55;101484.16;5097261;28;20161;-77
2022/08/03 03:35:45;;;;;;;9.68;2.40;;;;;;;27.93;47.04;101485.50;5115643;28;20042;-77
2022/08/03 03:38:11;;;;;;;9.85;2.50;;;;;;;29.02;44.23;101483.66;5096256;28;20034;-77
2022/08/03 03:40:40;;;;;;;8.82;2.45;;;;;;;29.33;43.93;101470.47;5097198;28;20413;-76
2022/08/03 03:43:10;;;;;;;13.52;2.30;;;;;;;29.51;43.09;101473.56;5096874;28;20134;-76
2022/08/03 03:45:36;;;;;;;8.27;2.33;;;;;;;29.23;43.95;101472.16;5096254;28;20062;-76
2022/08/03 03:48:06;;;;;;;8.70;2.50;;;;;;;28.82;44.94;101482.50;5096996;28;20379;-76
2022/08/03 03:50:32;;;;;;;11.25;2.00;;;;;;;29.23;44.02;101475.72;5096694;28;20051;-76
2022/08/03 03:52:58;;;;;;;5.30;2.40;;;;;;;29.25;43.80;101484.56;5096525;28;20039;-77
2022/08/03 03:55:23;;;;;;;9.73;2.53;;;;;;;29.81;42.82;101480.09;5115062;28;20012;-77
2022/08/03 03:57:49;;;;;;;10.50;2.75;;;;;;;29.54;43.37;101484.06;5115222;28;20032;-76
2022/08/03 04:00:16;;;;;;;8.85;2.30;;;;;;;29.50;43.14;101488.00;5114477;28;20026;-77
2022/08/03 04:02:42;;;;;;;8.50;2.22;;;;;;;29.78;42.88;101489.28;5096883;28;20027;-77
2022/08/03 04:11:23;;;;;;;7.43;2.55;;;;;;;29.69;42.67;101486.50;5115554;28;20115;-77
2022/08/03 04:13:54;;;;;;;10.37;2.30;;;;;;;29.58;43.44;101490.03;5096042;28;20103;-77
2022/08/03 04:16:22;;;;;;;3.75;1.70;;;;;;;29.74;42.86;101495.06;5115005;28;20280;-77
2022/08/03 04:19:01;;;;;;;9.98;2.30;;;;;;;29.71;42.69;101500.69;5114871;28;20121;-77
2022/08/03 04:21:29;;;;;;;8.65;2.20;;;;;;;29.59;42.90;101492.66;5114129;28;20382;-76
2022/08/03 04:24:00;;;;;;;7.50;2.47;;;;;;;29.45;43.51;101496.41;5096186;28;20463;-77
2022/08/03 04:26:30;;;;;;;13.95;2.30;;;;;;;29.36;43.76;101493.59;5096231;28;20498;-77
2022/08/03 04:28:57;;;;;;;12.52;2.53;;;;;;;28.52;45.81;101494.63;5095688;28;20024;-77
2022/08/03 04:31:24;;;;;;;9.55;2.33;;;;;;;29.45;43.61;101482.97;5096296;28;20042;-77
2022/08/03 04:33:52;;;;;;;11.45;2.30;;;;;;;28.33;46.42;101488.91;5114620;28;20107;-77
2022/08/03 04:36:21;;;;;;;11.90;2.45;;;;;;;29.02;44.92;101493.56;5095300;28;20045;-77
2022/08/03 04:39:03;;;;;;;11.60;3.17;;;;;;;28.61;45.66;101496.59;5096393;28;20027;-77
2022/08/03 04:41:30;;;;;;;10.00;2.30;;;;;;;29.72;42.75;101491.66;5096067;28;20532;-77
2022/08/03 04:43:58;;;;;;;15.43;2.50;;;;;;;29.50;43.10;101496.06;5096056;28;20051;-77
2022/08/03 04:46:27;;;;;;;10.70;2.97;;;;;;;28.85;44.84;101503.81;5114206;28;20024;-77
2022/08/03 04:48:53;;;;;;;9.90;2.92;;;;;;;29.50;43.24;101497.88;5095385;28;20080;-77
2022/08/03 04:51:18;;;;;;;13.73;2.75;;;;;;;29.23;44.35;101502.63;5096063;28;20031;-77
2022/08/03 04:53:44;;;;;;;8.80;2.28;;;;;;;29.26;44.68;101497.06;5114152;28;20026;-77
2022/08/03 04:56:09;;;;;;;13.30;2.45;;;;;;;29.61;43.24;101496.06;5094877;28;20360;-77
2022/08/03 04:58:35;;;;;;;11.10;2.00;;;;;;;29.14;44.63;101508.75;5096025;28;20019;-77
2022/08/03 05:01:00;;;;;;;13.70;2.30;;;;;;;28.94;44.93;101513.84;5096030;28;20126;-77
2022/08/03 05:03:26;;;;;;;11.25;2.63;;;;;;;28.43;46.33;101511.44;5095175;28;20023;-77
2022/08/03 05:05:52;;;;;;;9.23;2.42;;;;;;;28.35;47.13;101516.53;5113333;28;20020;-76
2022/08/03 05:08:18;;;;;;;9.15;2.38;;;;;;;29.23;44.92;101509.84;5095768;28;20015;-77
2022/08/03 05:10:44;;;;;;;15.23;2.67;;;;;;;28.37;46.50;101519.97;5095140;28;20031;-77
2022/08/03 05:13:11;;;;;;;10.35;2.25;;;;;;;28.54;46.68;101511.50;5095691;28;20035;-77
2022/08/03 05:15:37;;;;;;;12.57;2.47;;;;;;;28.79;45.91;101517.72;5114071;28;20024;-77
2022/08/03 05:18:03;;;;;;;9.82;2.65;;;;;;;27.87;48.39;101528.06;5094894;28;20068;-77
2022/08/03 05:20:28;;;;;;;7.80;2.17;;;;;;;28.32;47.46;101519.47;5095554;28;20382;-77
2022/08/03 05:22:53;;;;;;;12.07;2.70;;;;;;;27.57;51.11;101526.63;5095493;28;20046;-77
2022/08/03 05:25:19;;;;;;;5.40;2.45;;;;;;;27.81;49.54;101529.38;5112878;28;20453;-77
2022/08/03 05:27:44;;;;;;;9.40;2.80;;;;;;;28.23;48.83;101534.44;5095197;28;20046;-77
2022/08/03 05:30:10;;;;;;;13.23;2.58;;;;;;;28.69;47.81;101535.53;5113418;28;20057;-77
2022/08/03 05:32:35;;;;;;;11.07;3.58;;;;;;;28.24;49.07;101531.63;5094504;28;20030;-78
2022/08/03 05:35:01;;;;;;;7.32;2.70;;;;;;;27.65;50.45;101534.13;5095268;28;20031;-78
2022/08/03 05:37:26;;;;;;;11.70;2.90;;;;;;;27.54;50.61;101533.06;5094863;28;20076;-78
2022/08/03 05:39:51;;;;;;;11.73;2.83;;;;;;;28.26;49.07;101535.06;5094928;28;20024;-77
2022/08/03 05:42:17;;;;;;;10.70;2.92;;;;;;;28.19;48.57;101530.25;5094944;28;20024;-77
2022/08/03 05:44:42;;;;;;;11.63;3.30;;;;;;;28.75;47.83;101535.06;5093979;28;20138;-77
2022/08/03 05:47:08;;;;;;;19.88;2.85;;;;;;;29.42;46.50;101528.13;5094794;28;20058;-77
2022/08/03 05:49:33;;;;;;;12.43;2.80;;;;;;;28.20;48.79;101524.75;5113177;28;20464;-77
2022/08/03 05:51:59;;;;;;;9.38;3.40;;;;;;;27.77;50.11;101535.94;5094497;28;20123;-78
2022/08/03 05:54:24;;;;;;;12.65;3.50;;;;;;;27.76;50.06;101527.00;5095185;28;20536;-77
2022/08/03 05:56:50;;;;;;;13.80;4.10;;;;;;;28.19;49.78;101533.81;5095127;28;20076;-78
2022/08/03 05:59:15;;;;;;;14.30;3.78;;;;;;;29.04;48.06;101529.28;5094188;28;20072;-77
2022/08/03 06:01:40;;;;;;;10.75;3.88;;;;;;;29.83;44.98;101523.94;5094870;28;20023;-77
2022/08/03 06:04:06;;;;;;;14.75;4.57;;;;;;;29.41;46.93;101531.78;5094827;28;20065;-77
2022/08/03 06:06:31;;;;;;;11.80;4.28;;;;;;;28.94;47.31;101532.66;5094484;28;20402;-77
2022/08/03 06:08:56;;;;;;;9.63;4.10;;;;;;;29.99;45.84;101530.81;5094723;28;20023;-77
2022/08/03 06:11:22;;;;;;;15.43;4.60;;;;;;;30.06;44.87;101530.19;5094535;28;20023;-77
2022/08/03 06:13:47;;;;;;;20.55;5.10;;;;;;;29.54;44.64;101537.06;5093747;28;20042;-77
2022/08/03 06:16:13;;;;;;;15.23;4.85;;;;;;;31.05;42.76;101529.19;5094505;28;20022;-77
2022/08/03 06:18:39;;;;;;;14.43;5.15;;;;;;;30.78;43.15;101531.41;5112755;28;20067;-77
2022/08/03 06:21:04;;;;;;;13.13;5.05;;;;;;;30.11;43.79;101529.81;5112100;28;20030;-77
2022/08/03 06:23:30;;;;;;;16.67;5.68;;;;;;;29.21;45.62;101539.59;5094322;28;20024;-77
2022/08/03 06:25:55;;;;;;;24.38;4.72;;;;;;;29.34;45.30;101531.41;5112530;28;20020;-77
2022/08/03 06:28:21;;;;;;;12.13;4.43;;;;;;;29.35;46.08;101532.31;5112557;28;20046;-77
2022/08/03 06:30:46;;;;;;;22.25;5.07;;;;;;;29.15;46.35;101531.13;5094415;28;20027;-77
2022/08/03 06:33:12;;;;;;;13.30;4.70;;;;;;;29.20;46.34;101534.31;5094244;28;20026;-77
2022/08/03 06:35:37;;;;;;;14.60;4.55;;;;;;;28.46;47.89;101538.09;5093843;28;20037;-78
2022/08/03 06:38:02;;;;;;;13.63;4.72;;;;;;;30.00;44.94;101535.22;5094403;28;20383;-78
2022/08/03 06:40:30;;;;;;;18.75;5.10;;;;;;;29.67;44.61;101536.94;5094160;28;20028;-77
2022/08/03 06:42:57;;;;;;;14.50;5.00;;;;;;;29.45;45.43;101544.03;5093585;28;20047;-77
2022/08/03 06:45:22;;;;;;;14.05;5.03;;;;;;;28.32;47.84;101543.66;5094138;28;20114;-77
2022/08/03 06:47:59;;;;;;;17.27;5.22;;;;;;;29.97;44.44;101536.31;5093597;28;20114;-77
2022/08/03 06:50:25;;;;;;;12.75;5.38;;;;;;;30.08;44.96;101546.22;5112349;28;20035;-77
2022/08/03 06:52:50;;;;;;;13.70;6.40;;;;;;;29.77;44.95;101549.56;5094078;28;20109;-77
2022/08/03 06:55:15;;;;;;;12.70;5.78;;;;;;;30.29;43.36;101548.97;5093601;28;20603;-78
2022/08/03 06:57:41;;;;;;;14.57;5.85;;;;;;;30.46;42.67;101553.03;5094114;28;20134;-77
2022/08/03 07:00:08;;;;;;;22.33;6.15;;;;;;;31.00;41.63;101547.63;5094084;28;20107;-77
2022/08/03 07:02:33;;;;;;;17.77;6.50;;;;;;;32.36;38.88;101546.50;5093250;28;20019;-77
2022/08/03 07:04:59;;;;;;;15.02;5.45;;;;;;;32.88;38.61;101546.19;5094263;28;20501;-77
2022/08/03 07:07:24;;;;;;;10.23;5.10;;;;;;;33.17;37.15;101551.56;5094225;28;20034;-77
2022/08/03 07:09:50;;;;;;;16.35;5.68;;;;;;;32.37;39.05;101548.19;5111418;28;20363;-77
2022/08/03 07:12:15;;;;;;;13.27;6.20;;;;;;;33.47;36.77;101552.38;5093633;28;20016;-77
2022/08/03 07:14:40;;;;;;;16.65;7.32;;;;;;;35.41;33.46;101547.50;5093798;28;20020;-77
2022/08/03 07:17:06;;;;;;;16.85;6.13;;;;;;;35.42;32.81;101554.59;5111282;28;20059;-77
2022/08/03 07:19:31;;;;;;;18.30;6.75;;;;;;;37.30;30.18;101566.88;5093843;28;20081;-77
2022/08/03 07:21:57;;;;;;;14.98;7.00;;;;;;;34.52;34.49;101563.75;5093635;28;20487;-77
2022/08/03 07:24:23;;;;;;;15.30;5.72;;;;;;;37.64;29.56;101578.50;5093139;28;20028;-78
2022/08/03 07:26:48;;;;;;;18.23;7.15;;;;;;;36.63;30.70;101567.91;5093939;28;20080;-78
2022/08/03 07:29:14;;;;;;;19.45;7.90;;;;;;;32.97;36.28;101575.09;5095636;28;20019;-77
2022/08/03 07:31:39;;;;;;;14.93;7.15;;;;;;;34.02;35.00;101577.78;5114811;28;20110;-77
2022/08/03 07:34:04;;;;;;;15.07;6.20;;;;;;;34.90;33.46;101582.59;5097506;28;20111;-77
2022/08/03 07:36:31;;;;;;;19.95;6.63;;;;;;;36.68;29.80;101584.59;5115564;28;20025;-78
2022/08/03 07:38:57;;;;;;;17.23;6.55;;;;;;;36.21;31.81;101582.47;5096676;28;20481;-77
2022/08/03 07:41:22;;;;;;;16.83;6.75;;;;;;;35.70;31.43;101584.31;5097430;28;20092;-77
2022/08/03 07:43:48;;;;;;;17.38;6.25;;;;;;;37.96;29.79;101583.00;5115377;28;20066;-78
2022/08/03 07:46:13;;;;;;;13.52;5.70;;;;;;;39.36;28.51;101581.03;5096315;28;20026;-77
2022/08/03 07:48:39;;;;;;;15.10;5.90;;;;;;;37.08;29.00;101589.34;5097615;28;20494;-77
2022/08/03 07:51:06;;;;;;;13.63;5.82;;;;;;;37.79;28.19;101586.84;5096581;28;20078;-78
2022/08/03 07:53:31;;;;;;;15.73;6.18;;;;;;;38.02;28.46;101595.06;5115429;28;20023;-77
2022/08/03 07:55:56;;;;;;;12.00;6.10;;;;;;;36.56;30.55;101585.97;5096999;28;20023;-77
2022/08/03 07:58:22;;;;;;;12.18;5.88;;;;;;;37.25;29.05;101593.75;5096641;28;20491;-77
2022/08/03 08:00:49;;;;;;;16.90;6.10;;;;;;;38.37;28.24;101592.81;5096981;28;20110;-77
2022/08/03 08:03:15;;;;;;;10.80;5.20;;;;;;;36.86;30.18;101591.75;5097094;28;20089;-77
2022/08/03 08:05:41;;;;;;;17.20;5.57;;;;;;;38.99;26.85;101591.84;5096435;28;20031;-78
2022/08/03 08:08:07;;;;;;;20.33;6.80;;;;;;;36.43;30.31;101591.03;5096776;28;20020;-78
2022/08/03 08:10:32;;;;;;;17.77;5.80;;;;;;;38.09;27.88;101600.66;5096932;28;20360;-77
2022/08/03 08:12:58;;;;;;;13.45;6.30;;;;;;;37.01;29.44;101600.97;5114806;28;20023;-78
2022/08/03 08:15:23;;;;;;;12.15;6.03;;;;;;;37.97;28.07;101592.84;5096676;28;20026;-77
2022/08/03 08:17:49;;;;;;;13.10;5.45;;;;;;;37.09;29.46;101593.78;5114854;28;20039;-77
2022/08/03 08:20:18;;;;;;;15.15;6.15;;;;;;;38.22;28.29;101595.44;5114469;28;20107;-77
2022/08/03 08:22:43;;;;;;;19.63;6.05;;;;;;;39.17;26.14;101587.91;5096200;28;20023;-78
2022/08/03 08:25:09;;;;;;;15.27;5.47;;;;;;;40.16;24.99;101600.41;5096329;28;20479;-78
2022/08/03 08:27:43;;;;;;;11.75;5.22;;;;;;;42.30;23.55;101601.09;5095672;28;20522;-77
2022/08/03 08:30:09;;;;;;;14.95;6.35;;;;;;;39.40;26.66;101595.19;5096407;28;20055;-77
2022/08/03 08:32:36;;;;;;;15.05;5.70;;;;;;;40.46;24.94;101592.94;5096272;28;20554;-78
2022/08/03 08:35:02;;;;;;;12.00;5.18;;;;;;;38.32;26.88;101593.38;5113928;28;20027;-77
2022/08/03 08:37:27;;;;;;;14.48;5.30;;;;;;;38.64;26.31;101594.16;5096117;28;20027;-78
2022/08/03 08:39:55;;;;;;;10.18;5.53;;;;;;;36.41;29.74;101593.94;5113885;28;20028;-78
2022/08/03 08:42:20;;;;;;;11.38;4.80;;;;;;;38.31;27.57;101591.66;5095322;28;20020;-78
2022/08/03 08:44:46;;;;;;;14.45;6.00;;;;;;;38.61;27.63;101591.81;5096082;28;20055;-78
2022/08/03 08:47:13;;;;;;;12.38;5.57;;;;;;;40.95;25.79;101594.06;5096404;28;20031;-77
2022/08/03 08:49:40;;;;;;;10.57;5.25;;;;;;;42.17;22.76;101590.91;5095472;28;20110;-78
2022/08/03 08:52:07;;;;;;;18.48;6.32;;;;;;;43.46;22.06;101593.44;5095946;28;20024;-78
2022/08/03 08:54:35;;;;;;;16.88;4.63;;;;;;;42.40;22.30;101600.69;5095335;28;20080;-78
2022/08/03 08:57:03;;;;;;;11.20;6.00;;;;;;;41.44;23.86;101597.78;5096142;28;20019;-78
2022/08/03 08:59:33;;;;;;;12.82;5.00;;;;;;;41.41;23.50;101592.69;5095682;28;20033;-78
2022/08/03 09:01:59;;;;;;;16.20;5.07;;;;;;;42.30;22.64;101601.09;5113578;28;20024;-78
2022/08/03 09:04:26;;;;;;;15.02;5.07;;;;;;;40.28;25.07;101587.06;5096009;28;20019;-78
2022/08/03 09:06:52;;;;;;;11.77;5.25;;;;;;;40.92;24.70;101593.56;5095969;28;20024;-78
2022/08/03 09:09:17;;;;;;;14.60;4.65;;;;;;;41.29;23.50;101595.13;5112901;28;20368;-78
2022/08/03 09:11:43;;;;;;;10.88;4.78;;;;;;;40.68;25.03;101599.28;5095728;28;20034;-77
2022/08/03 09:14:09;;;;;;;11.82;5.43;;;;;;;38.97;26.46;101596.63;5095566;28;20031;-78
2022/08/03 09:16:34;;;;;;;11.90;5.28;;;;;;;42.30;23.53;101596.44;5094504;28;20019;-77
2022/08/03 09:19:12;;;;;;;9.50;4.57;;;;;;;41.12;24.68;101594.56;5095628;28;20467;-78
2022/08/03 09:21:38;;;;;;;10.10;5.13;;;;;;;40.01;25.56;101603.16;5095604;28;20023;-78
2022/08/03 09:24:05;;;;;;;13.63;5.88;;;;;;;40.59;24.43;101605.94;5112749;28;20387;-77
2022/08/03 09:26:33;;;;;;;11.10;5.28;;;;;;;39.76;25.71;101608.97;5113422;28;20028;-78
2022/08/03 09:29:09;;;;;;;9.50;5.32;;;;;;;39.44;26.07;101611.03;5095268;28;20020;-78
2022/08/03 09:31:39;;;;;;;16.42;7.18;;;;;;;39.63;25.80;101609.66;5094308;28;20479;-78
2022/08/03 09:34:10;;;;;;;19.27;5.82;;;;;;;40.20;25.47;101607.19;5113460;28;20088;-78
2022/08/03 09:36:39;;;;;;;10.20;5.28;;;;;;;40.41;24.51;101606.38;5094536;28;20031;-78
2022/08/03 09:39:09;;;;;;;12.82;4.95;;;;;;;40.09;25.22;101607.72;5095014;28;20111;-78
2022/08/03 09:41:36;;;;;;;11.05;5.03;;;;;;;40.16;25.68;101603.16;5095292;28;20027;-78
2022/08/03 09:44:02;;;;;;;12.10;5.25;;;;;;;41.94;22.88;101614.06;5112319;28;20093;-78
2022/08/03 09:46:30;;;;;;;12.90;4.78;;;;;;;41.17;24.44;101604.97;5094671;28;20039;-77
2022/08/03 09:49:09;;;;;;;7.88;4.18;;;;;;;40.50;24.59;101590.69;5113210;28;20019;-77
2022/08/03 09:51:34;;;;;;;13.90;5.72;;;;;;;39.26;26.11;101600.47;5094119;28;20081;-77
2022/08/03 09:54:02;;;;;;;10.48;4.50;;;;;;;40.35;24.18;101597.06;5094892;28;20390;-78
2022/08/03 09:56:46;;;;;;;10.75;4.70;;;;;;;40.70;25.22;101599.09;5094758;28;20024;-78
2022/08/03 09:59:22;;;;;;;12.85;5.70;;;;;;;40.01;25.86;101598.53;5094286;28;20473;-78
2022/08/03 10:01:48;;;;;;;10.93;4.85;;;;;;;37.12;28.80;101607.06;5112811;28;20064;-77
2022/08/03 10:04:15;;;;;;;14.98;5.15;;;;;;;38.60;26.29;101601.00;5094864;28;20027;-78
2022/08/03 10:06:59;;;;;;;11.77;4.95;;;;;;;39.43;25.79;101600.28;5112486;28;20019;-77
2022/08/03 10:09:25;;;;;;;11.93;5.85;;;;;;;38.51;26.67;101596.63;5094330;28;20047;-77
2022/08/03 10:11:51;;;;;;;13.30;6.18;;;;;;;39.14;26.44;101591.00;5094056;28;20491;-77
2022/08/03 10:14:19;;;;;;;10.18;4.97;;;;;;;40.40;24.83;101601.09;5094788;28;20055;-78
2022/08/03 10:16:45;;;;;;;16.98;4.75;;;;;;;38.06;26.58;101592.81;5094577;28;20391;-78
2022/08/03 10:19:12;;;;;;;11.10;4.95;;;;;;;38.71;27.01;101593.47;5093819;28;20019;-77
2022/08/03 10:21:40;;;;;;;9.60;4.95;;;;;;;39.50;25.86;101588.41;5094397;28;20020;-77
2022/08/03 10:24:09;;;;;;;13.15;4.90;;;;;;;37.24;29.05;101592.06;5112850;28;20476;-77
2022/08/03 10:26:37;;;;;;;12.05;5.22;;;;;;;39.05;26.62;101592.09;5111913;28;20422;-77
2022/08/03 10:29:08;;;;;;;7.97;4.65;;;;;;;37.83;27.25;101593.63;5112475;28;20027;-77
2022/08/03 10:31:41;;;;;;;13.50;5.38;;;;;;;37.49;28.41;101589.28;5094179;28;20034;-78
2022/08/03 10:34:24;;;;;;;9.82;5.35;;;;;;;37.47;28.63;101594.09;5111813;28;20031;-78
2022/08/03 10:36:55;;;;;;;16.35;5.18;;;;;;;38.95;26.08;101579.59;5094472;28;20024;-78
2022/08/03 10:39:22;;;;;;;15.33;4.40;;;;;;;38.75;26.15;101578.41;5094141;28;20023;-78
2022/08/03 10:41:49;;;;;;;8.48;4.55;;;;;;;40.36;24.88;101578.72;5093639;28;20024;-78
2022/08/03 10:44:19;;;;;;;10.85;4.75;;;;;;;39.78;25.76;101582.28;5094023;28;20051;-77
2022/08/03 10:46:47;;;;;;;12.23;5.38;;;;;;;37.41;28.42;101590.16;5094517;28;20161;-78
2022/08/03 10:49:14;;;;;;;11.07;4.88;;;;;;;39.62;26.11;101582.50;5093256;28;20034;-77
2022/08/03 10:51:41;;;;;;;9.43;4.63;;;;;;;37.77;27.99;101586.16;5094189;28;20379;-78
2022/08/03 10:54:36;;;;;;;13.10;5.13;;;;;;;38.02;27.97;101587.72;5093336;28;20396;-78
2022/08/03 10:59:45;;;;;;;13.93;5.57;;;;;;;38.94;26.80;101575.16;5112765;28;20042;-78
2022/08/03 11:02:12;;;;;;;9.98;4.80;;;;;;;38.80;27.10;101568.63;5093122;28;20023;-78
2022/08/03 11:04:38;;;;;;;15.55;6.28;;;;;;;38.04;27.62;101562.16;5114760;28;20026;-78
2022/08/03 11:07:19;;;;;;;9.93;4.57;;;;;;;39.01;26.75;101570.63;5097990;28;20027;-78
2022/08/03 11:09:55;;;;;;;13.60;4.53;;;;;;;39.20;26.67;101573.91;5097213;28;20020;-78
2022/08/03 11:12:22;;;;;;;11.27;4.65;;;;;;;40.26;24.24;101572.72;5116108;28;20125;-78
2022/08/03 11:14:48;;;;;;;10.55;4.10;;;;;;;38.59;25.70;101572.00;5097922;28;20030;-78
2022/08/03 11:17:13;;;;;;;11.60;4.20;;;;;;;40.19;24.46;101561.72;5097036;28;20023;-78
2022/08/03 11:19:50;;;;;;;9.07;3.67;;;;;;;39.89;23.67;101570.00;5097781;28;20072;-77
2022/08/03 11:22:17;;;;;;;4.63;3.10;;;;;;;37.78;26.33;101571.50;5097102;28;20421;-78
2022/08/03 11:24:42;;;;;;;7.78;3.20;;;;;;;38.38;25.02;101560.94;5115930;28;20407;-77
2022/08/03 11:27:17;;;;;;;13.00;3.88;;;;;;;38.01;26.33;101558.75;5097869;28;20038;-77
2022/08/03 11:30:16;;;;;;;12.27;4.03;;;;;;;38.84;25.54;101558.16;5097198;28;20038;-78
2022/08/03 11:35:15;;;;;;;10.55;3.80;;;;;;;39.93;24.32;101568.56;5116070;28;20111;-78